Time,TemperatureF,DewpointF,PressureIn,WindDirection,WindDirectionDegrees,WindSpeedMPH,WindSpeedGustMPH,Humidity,HourlyPrecipIn,Conditions,Clouds,dailyrainin,SoftwareType,DateUTC
2013-04-21 00:02:00,45.0,38.0,28.92,SSE,156,7.0,-999.0,77,23.70,,,-99.99,,2013-04-21 05:02:00,
2013-04-21 00:12:00,45.0,38.0,28.92,SSE,156,7.0,-999.0,77,23.70,,,-99.99,,2013-04-21 05:12:00,
2013-04-21 00:22:00,45.0,39.0,28.91,SSE,153,8.0,-999.0,79,23.70,,,-99.99,,2013-04-21 05:22:00,
2013-04-21 00:32:00,45.0,39.0,28.91,SSE,153,8.0,-999.0,79,23.70,,,-99.99,,2013-04-21 05:32:00,
2013-04-21 00:43:00,45.0,39.0,28.91,SSE,153,8.0,-999.0,79,23.70,,,-99.99,,2013-04-21 05:43:00,
2013-04-21 00:52:00,45.0,39.0,28.90,SSE,160,9.0,-999.0,79,23.70,,,-99.99,,2013-04-21 05:52:00,
2013-04-21 01:01:00,45.0,39.0,28.90,SSE,160,9.0,-999.0,79,23.70,,,-99.99,,2013-04-21 06:01:00,
2013-04-21 01:12:00,45.0,39.0,28.90,SE,135,6.0,-999.0,80,23.70,,,-99.99,,2013-04-21 06:12:00,
2013-04-21 01:21:00,45.0,39.0,28.90,SE,135,6.0,-999.0,80,23.70,,,-99.99,,2013-04-21 06:21:00,
2013-04-21 01:32:00,45.0,39.0,28.90,SE,135,6.0,-999.0,80,23.70,,,-99.99,,2013-04-21 06:32:00,
2013-04-21 01:42:00,45.0,39.0,28.90,SE,135,6.0,-999.0,80,23.70,,,-99.99,,2013-04-21 06:42:00,
2013-04-21 01:52:00,45.0,40.0,28.89,SSE,156,12.0,-999.0,81,23.70,,,-99.99,,2013-04-21 06:52:00,
2013-04-21 02:01:00,45.0,40.0,28.89,SSE,156,12.0,-999.0,81,23.70,,,-99.99,,2013-04-21 07:01:00,
2013-04-21 02:12:00,45.0,39.0,28.89,South,170,6.0,-999.0,80,23.70,,,-99.99,,2013-04-21 07:12:00,
2013-04-21 02:21:00,45.0,39.0,28.89,South,170,6.0,-999.0,80,23.70,,,-99.99,,2013-04-21 07:21:00,
2013-04-21 02:32:00,45.0,39.0,28.89,South,170,6.0,-999.0,80,23.70,,,-99.99,,2013-04-21 07:32:00,
2013-04-21 02:42:00,45.0,39.0,28.89,South,170,6.0,-999.0,80,23.70,,,-99.99,,2013-04-21 07:42:00,
2013-04-21 02:52:00,45.0,39.0,28.88,South,174,9.0,-999.0,79,23.70,,,-99.99,,2013-04-21 07:52:00,
2013-04-21 03:01:00,45.0,39.0,28.88,South,174,9.0,-999.0,79,23.70,,,-99.99,,2013-04-21 08:01:00,
2013-04-21 03:12:00,45.0,40.0,28.86,SSE,156,9.0,-999.0,81,23.70,,,-99.99,,2013-04-21 08:12:00,
2013-04-21 03:21:00,45.0,40.0,28.86,SSE,156,9.0,-999.0,81,23.70,,,-99.99,,2013-04-21 08:21:00,
2013-04-21 03:32:00,45.0,40.0,28.86,SSE,156,9.0,-999.0,81,23.70,,,-99.99,,2013-04-21 08:32:00,
2013-04-21 03:42:00,45.0,40.0,28.86,SSE,156,9.0,-999.0,81,23.70,,,-99.99,,2013-04-21 08:42:00,
2013-04-21 03:52:00,45.0,40.0,28.87,South,191,8.0,-999.0,81,23.70,,,-99.99,,2013-04-21 08:52:00,
2013-04-21 04:01:00,45.0,40.0,28.87,South,191,8.0,-999.0,81,23.70,,,-99.99,,2013-04-21 09:01:00,
2013-04-21 04:12:00,45.0,40.0,28.87,South,172,3.0,-999.0,81,23.70,,,-99.99,,2013-04-21 09:12:00,
2013-04-21 04:21:00,45.0,40.0,28.87,South,172,3.0,-999.0,81,23.70,,,-99.99,,2013-04-21 09:21:00,
2013-04-21 04:33:00,45.0,40.0,28.87,South,172,3.0,-999.0,81,23.70,,,-99.99,,2013-04-21 09:33:00,
2013-04-21 04:43:00,45.0,40.0,28.87,South,172,3.0,-999.0,81,23.70,,,-99.99,,2013-04-21 09:43:00,
2013-04-21 04:53:00,45.0,40.0,28.86,SSE,160,11.0,-999.0,83,23.70,,,-99.99,,2013-04-21 09:53:00,
2013-04-21 05:02:00,45.0,40.0,28.86,SSE,160,11.0,-999.0,83,23.70,,,-99.99,,2013-04-21 10:02:00,
2013-04-21 05:12:00,46.0,41.0,28.87,South,177,8.0,-999.0,82,23.70,,,-99.99,,2013-04-21 10:12:00,
2013-04-21 05:22:00,46.0,41.0,28.87,South,177,8.0,-999.0,82,23.70,,,-99.99,,2013-04-21 10:22:00,
2013-04-21 05:33:00,46.0,41.0,28.87,South,177,8.0,-999.0,82,23.70,,,-99.99,,2013-04-21 10:33:00,
2013-04-21 05:42:00,46.0,41.0,28.87,South,177,8.0,-999.0,82,23.70,,,-99.99,,2013-04-21 10:42:00,
2013-04-21 05:52:00,45.0,40.0,28.86,South,173,9.0,-999.0,83,23.70,,,-99.99,,2013-04-21 10:52:00,
2013-04-21 06:02:00,45.0,40.0,28.86,South,173,9.0,-999.0,83,23.70,,,-99.99,,2013-04-21 11:02:00,
2013-04-21 06:12:00,45.0,41.0,28.86,SSE,166,7.0,-999.0,85,23.70,,,-99.99,,2013-04-21 11:12:00,
2013-04-21 06:22:00,45.0,41.0,28.86,SSE,166,7.0,-999.0,85,23.70,,,-99.99,,2013-04-21 11:22:00,
2013-04-21 06:34:00,45.0,41.0,28.86,SSE,166,7.0,-999.0,85,23.70,,,-99.99,,2013-04-21 11:34:00,
2013-04-21 06:42:00,44.0,40.0,28.87,South,191,11.0,-999.0,86,23.70,,,-99.99,,2013-04-21 11:42:00,
2013-04-21 06:52:00,44.0,40.0,28.87,South,191,11.0,-999.0,86,23.70,,,-99.99,,2013-04-21 11:52:00,
2013-04-21 07:02:00,44.0,40.0,28.87,South,191,11.0,-999.0,86,23.70,,,-99.99,,2013-04-21 12:02:00,
2013-04-21 07:12:00,44.0,41.0,28.87,South,174,9.0,-999.0,88,23.70,,,-99.99,,2013-04-21 12:12:00,
2013-04-21 07:22:00,44.0,41.0,28.87,South,174,9.0,-999.0,88,23.70,,,-99.99,,2013-04-21 12:22:00,
2013-04-21 07:32:00,44.0,41.0,28.87,South,174,9.0,-999.0,88,23.70,,,-99.99,,2013-04-21 12:32:00,
2013-04-21 07:42:00,44.0,41.0,28.87,South,174,9.0,-999.0,88,23.70,,,-99.99,,2013-04-21 12:42:00,
2013-04-21 07:52:00,45.0,41.0,28.87,South,174,12.0,-999.0,87,23.70,,,-99.99,,2013-04-21 12:52:00,
2013-04-21 08:01:00,45.0,41.0,28.87,South,174,12.0,-999.0,87,23.70,,,-99.99,,2013-04-21 13:01:00,
2013-04-21 08:12:00,46.0,42.0,28.88,South,180,12.0,-999.0,86,23.70,,,-99.99,,2013-04-21 13:12:00,
2013-04-21 08:21:00,46.0,42.0,28.88,South,180,12.0,-999.0,86,23.70,,,-99.99,,2013-04-21 13:21:00,
2013-04-21 08:32:00,46.0,42.0,28.88,South,180,12.0,-999.0,86,23.70,,,-99.99,,2013-04-21 13:32:00,
2013-04-21 08:42:00,46.0,42.0,28.88,South,180,12.0,-999.0,86,23.70,,,-99.99,,2013-04-21 13:42:00,
2013-04-21 08:52:00,47.0,43.0,28.87,South,180,13.0,-999.0,86,23.70,,,-99.99,,2013-04-21 13:52:00,
2013-04-21 09:01:00,47.0,43.0,28.87,South,180,13.0,-999.0,86,23.70,,,-99.99,,2013-04-21 14:01:00,
2013-04-21 09:11:00,48.0,44.0,28.87,South,186,12.0,-999.0,86,23.70,,,-99.99,,2013-04-21 14:11:00,
2013-04-21 09:21:00,48.0,44.0,28.87,South,186,12.0,-999.0,86,23.70,,,-99.99,,2013-04-21 14:21:00,
2013-04-21 09:32:00,48.0,44.0,28.87,South,186,12.0,-999.0,86,23.70,,,-99.99,,2013-04-21 14:32:00,
2013-04-21 09:42:00,48.0,44.0,28.87,South,186,12.0,-999.0,86,23.70,,,-99.99,,2013-04-21 14:42:00,
2013-04-21 09:52:00,48.0,44.0,28.87,SSE,163,14.0,-999.0,86,23.70,,,-99.99,,2013-04-21 14:52:00,
2013-04-21 10:02:00,48.0,44.0,28.87,SSE,163,14.0,-999.0,86,23.70,,,-99.99,,2013-04-21 15:02:00,
2013-04-21 10:11:00,48.0,44.0,28.87,SSE,163,14.0,-999.0,86,23.70,,,-99.99,,2013-04-21 15:11:00,
2013-04-21 10:22:00,50.0,46.0,28.86,South,172,11.0,-999.0,85,23.70,,,-99.99,,2013-04-21 15:22:00,
2013-04-21 10:33:00,50.0,46.0,28.86,South,172,11.0,-999.0,85,23.70,,,-99.99,,2013-04-21 15:33:00,
2013-04-21 10:43:00,50.0,46.0,28.86,South,172,11.0,-999.0,85,23.70,,,-99.99,,2013-04-21 15:43:00,
2013-04-21 10:53:00,51.0,47.0,28.86,South,180,9.0,-999.0,85,23.70,,,-99.99,,2013-04-21 15:53:00,
2013-04-21 11:03:00,51.0,47.0,28.86,South,180,9.0,-999.0,85,23.70,,,-99.99,,2013-04-21 16:03:00,
2013-04-21 11:12:00,55.0,49.0,28.86,SW,215,11.0,-999.0,80,23.70,,,-99.99,,2013-04-21 16:12:00,
2013-04-21 11:22:00,55.0,49.0,28.86,SW,215,11.0,-999.0,80,23.70,,,-99.99,,2013-04-21 16:22:00,
2013-04-21 11:33:00,55.0,49.0,28.86,SW,215,11.0,-999.0,80,23.70,,,-99.99,,2013-04-21 16:33:00,
2013-04-21 11:42:00,55.0,49.0,28.86,SW,215,11.0,-999.0,80,23.70,,,-99.99,,2013-04-21 16:42:00,
2013-04-21 11:52:00,58.0,50.0,28.85,South,184,11.0,-999.0,76,23.70,,,-99.99,,2013-04-21 16:52:00,
2013-04-21 12:02:00,58.0,50.0,28.85,South,184,11.0,-999.0,76,23.70,,,-99.99,,2013-04-21 17:02:00,
2013-04-21 12:12:00,62.0,51.0,28.84,SW,215,12.0,-999.0,66,23.70,,,-99.99,,2013-04-21 17:12:00,
2013-04-21 12:22:00,62.0,51.0,28.84,SW,215,12.0,-999.0,66,23.70,,,-99.99,,2013-04-21 17:22:00,
2013-04-21 12:32:00,62.0,51.0,28.84,SW,215,12.0,-999.0,66,23.70,,,-99.99,,2013-04-21 17:32:00,
2013-04-21 12:42:00,62.0,51.0,28.84,SW,215,12.0,-999.0,66,23.70,,,-99.99,,2013-04-21 17:42:00,
2013-04-21 12:52:00,64.0,51.0,28.83,SSW,204,20.0,-999.0,63,23.70,,,-99.99,,2013-04-21 17:52:00,
2013-04-21 13:02:00,64.0,51.0,28.83,SSW,204,20.0,-999.0,63,23.70,,,-99.99,,2013-04-21 18:02:00,
2013-04-21 13:11:00,64.0,51.0,28.83,SSW,204,20.0,-999.0,63,23.70,,,-99.99,,2013-04-21 18:11:00,
2013-04-21 13:22:00,64.0,52.0,28.82,SSW,205,17.0,-999.0,65,23.70,,,-99.99,,2013-04-21 18:22:00,
2013-04-21 13:33:00,64.0,52.0,28.82,SSW,205,17.0,-999.0,65,23.70,,,-99.99,,2013-04-21 18:33:00,
2013-04-21 13:42:00,64.0,52.0,28.82,SSW,205,17.0,-999.0,65,23.70,,,-99.99,,2013-04-21 18:42:00,
2013-04-21 13:52:00,65.0,51.0,28.81,South,184,18.0,-999.0,61,23.70,,,-99.99,,2013-04-21 18:52:00,
2013-04-21 14:02:00,65.0,51.0,28.81,South,184,18.0,-999.0,61,23.70,,,-99.99,,2013-04-21 19:02:00,
2013-04-21 14:12:00,65.0,51.0,28.81,South,184,18.0,-999.0,61,23.70,,,-99.99,,2013-04-21 19:12:00,
2013-04-21 14:21:00,65.0,51.0,28.80,South,173,18.0,-999.0,60,23.70,,,-99.99,,2013-04-21 19:21:00,
2013-04-21 14:32:00,65.0,51.0,28.80,South,173,18.0,-999.0,60,23.70,,,-99.99,,2013-04-21 19:32:00,
2013-04-21 14:43:00,65.0,51.0,28.80,South,173,18.0,-999.0,60,23.70,,,-99.99,,2013-04-21 19:43:00,
2013-04-21 14:52:00,64.0,51.0,28.80,SSW,208,9.0,-999.0,63,23.70,,,-99.99,,2013-04-21 19:52:00,
2013-04-21 15:01:00,64.0,51.0,28.80,SSW,208,9.0,-999.0,63,23.70,,,-99.99,,2013-04-21 20:01:00,
2013-04-21 15:11:00,65.0,51.0,28.79,South,191,14.0,-999.0,61,23.70,,,-99.99,,2013-04-21 20:11:00,
2013-04-21 15:22:00,65.0,51.0,28.79,South,191,14.0,-999.0,61,23.70,,,-99.99,,2013-04-21 20:22:00,
2013-04-21 15:32:00,65.0,51.0,28.79,South,191,14.0,-999.0,61,23.70,,,-99.99,,2013-04-21 20:32:00,
2013-04-21 15:42:00,65.0,51.0,28.79,South,191,14.0,-999.0,61,23.70,,,-99.99,,2013-04-21 20:42:00,
2013-04-21 15:52:00,64.0,51.0,28.78,SSW,212,15.0,-999.0,63,23.70,,,-99.99,,2013-04-21 20:52:00,
2013-04-21 16:02:00,64.0,51.0,28.78,SSW,212,15.0,-999.0,63,23.70,,,-99.99,,2013-04-21 21:02:00,
2013-04-21 16:12:00,65.0,52.0,28.77,SSW,207,8.0,-999.0,62,23.70,,,-99.99,,2013-04-21 21:12:00,
2013-04-21 16:21:00,65.0,52.0,28.77,SSW,207,8.0,-999.0,62,23.70,,,-99.99,,2013-04-21 21:21:00,
2013-04-21 16:33:00,65.0,52.0,28.77,SSW,207,8.0,-999.0,62,23.70,,,-99.99,,2013-04-21 21:33:00,
2013-04-21 16:43:00,65.0,52.0,28.77,SSW,207,8.0,-999.0,62,23.70,,,-99.99,,2013-04-21 21:43:00,
2013-04-21 16:53:00,65.0,52.0,28.77,SW,214,13.0,-999.0,62,23.70,,,-99.99,,2013-04-21 21:53:00,
2013-04-21 17:02:00,65.0,52.0,28.77,SW,214,13.0,-999.0,62,23.70,,,-99.99,,2013-04-21 22:02:00,
2013-04-21 17:12:00,66.0,52.0,28.77,SSW,211,13.0,-999.0,61,23.70,,,-99.99,,2013-04-21 22:12:00,
2013-04-21 17:22:00,66.0,52.0,28.77,SSW,211,13.0,-999.0,61,23.70,,,-99.99,,2013-04-21 22:22:00,
2013-04-21 17:33:00,66.0,52.0,28.77,SSW,211,13.0,-999.0,61,23.70,,,-99.99,,2013-04-21 22:33:00,
2013-04-21 17:43:00,66.0,52.0,28.77,SSW,211,13.0,-999.0,61,23.70,,,-99.99,,2013-04-21 22:43:00,
2013-04-21 17:52:00,65.0,52.0,28.77,SW,229,11.0,-999.0,62,23.70,,,-99.99,,2013-04-21 22:52:00,
2013-04-21 18:02:00,65.0,52.0,28.77,SW,229,11.0,-999.0,62,23.70,,,-99.99,,2013-04-21 23:02:00,
2013-04-21 18:12:00,65.0,52.0,28.77,SW,229,11.0,-999.0,62,23.70,,,-99.99,,2013-04-21 23:12:00,
2013-04-21 18:22:00,63.0,54.0,28.77,SSW,203,8.0,-999.0,73,23.70,,,-99.99,,2013-04-21 23:22:00,
2013-04-21 18:32:00,63.0,54.0,28.77,SSW,203,8.0,-999.0,73,23.70,,,-99.99,,2013-04-21 23:32:00,
2013-04-21 18:43:00,63.0,54.0,28.77,SSW,203,8.0,-999.0,73,23.70,,,-99.99,,2013-04-21 23:43:00,
2013-04-21 18:52:00,61.0,55.0,28.77,SSW,211,13.0,-999.0,80,23.70,,,-99.99,,2013-04-21 23:52:00,
2013-04-21 19:01:00,61.0,55.0,28.77,SSW,211,13.0,-999.0,80,23.70,,,-99.99,,2013-04-22 00:01:00,
2013-04-21 19:11:00,61.0,55.0,28.77,SSW,211,13.0,-999.0,80,23.70,,,-99.99,,2013-04-22 00:11:00,
2013-04-21 19:21:00,59.0,52.0,28.75,SSE,149,8.0,-999.0,78,23.70,,,-99.99,,2013-04-22 00:21:00,
2013-04-21 19:32:00,59.0,52.0,28.75,SSE,149,8.0,-999.0,78,23.70,,,-99.99,,2013-04-22 00:32:00,
2013-04-21 19:42:00,59.0,52.0,28.75,SSE,149,8.0,-999.0,78,23.70,,,-99.99,,2013-04-22 00:42:00,
2013-04-21 19:52:00,59.0,54.0,28.78,NW,319,9.0,-999.0,82,23.70,,,-99.99,,2013-04-22 00:52:00,
2013-04-21 20:01:00,59.0,54.0,28.78,NW,319,9.0,-999.0,82,23.70,,,-99.99,,2013-04-22 01:01:00,
2013-04-21 20:12:00,59.0,54.0,28.78,NW,319,9.0,-999.0,82,23.70,,,-99.99,,2013-04-22 01:12:00,
2013-04-21 20:21:00,56.0,54.0,28.81,NNE,25,4.0,-999.0,93,23.77,,,-99.99,,2013-04-22 01:21:00,
2013-04-21 20:32:00,56.0,54.0,28.81,NNE,25,4.0,-999.0,93,23.77,,,-99.99,,2013-04-22 01:32:00,
2013-04-21 20:42:00,56.0,54.0,28.81,NNE,25,4.0,-999.0,93,23.77,,,-99.99,,2013-04-22 01:42:00,
2013-04-21 20:52:00,55.0,53.0,28.82,NNE,27,0.0,-999.0,93,23.77,,,-99.99,,2013-04-22 01:52:00,
2013-04-21 21:02:00,55.0,53.0,28.82,NNE,27,0.0,-999.0,93,23.77,,,-99.99,,2013-04-22 02:02:00,
2013-04-21 21:11:00,53.0,52.0,28.83,East,89,0.0,-999.0,96,23.81,,,-99.99,,2013-04-22 02:11:00,
2013-04-21 21:21:00,53.0,52.0,28.83,East,89,0.0,-999.0,96,23.81,,,-99.99,,2013-04-22 02:21:00,
2013-04-21 21:32:00,53.0,52.0,28.83,East,89,0.0,-999.0,96,23.81,,,-99.99,,2013-04-22 02:32:00,
2013-04-21 21:42:00,53.0,52.0,28.83,East,89,0.0,-999.0,96,23.81,,,-99.99,,2013-04-22 02:42:00,
2013-04-21 21:52:00,53.0,52.0,28.84,East,89,0.0,-999.0,97,23.81,,,-99.99,,2013-04-22 02:52:00,
2013-04-21 22:02:00,53.0,52.0,28.84,East,89,0.0,-999.0,97,23.81,,,-99.99,,2013-04-22 03:02:00,
2013-04-21 22:11:00,53.0,52.0,28.84,East,89,0.0,-999.0,97,23.81,,,-99.99,,2013-04-22 03:11:00,
2013-04-21 22:22:00,51.0,50.0,28.86,East,89,0.0,-999.0,98,23.81,,,-99.99,,2013-04-22 03:22:00,
2013-04-21 22:33:00,51.0,50.0,28.86,East,89,0.0,-999.0,98,23.81,,,-99.99,,2013-04-22 03:33:00,
2013-04-21 22:43:00,51.0,50.0,28.86,East,89,0.0,-999.0,98,23.81,,,-99.99,,2013-04-22 03:43:00,
2013-04-21 22:52:00,50.0,49.0,28.87,North,10,0.0,-999.0,98,23.81,,,-99.99,,2013-04-22 03:52:00,
2013-04-21 23:02:00,50.0,49.0,28.87,North,10,0.0,-999.0,98,23.81,,,-99.99,,2013-04-22 04:02:00,
2013-04-21 23:12:00,50.0,49.0,28.87,North,10,0.0,-999.0,98,23.81,,,-99.99,,2013-04-22 04:12:00,
2013-04-21 23:23:00,50.0,50.0,28.88,NE,39,0.0,-999.0,99,23.81,,,-99.99,,2013-04-22 04:23:00,
2013-04-21 23:33:00,50.0,50.0,28.88,NE,39,0.0,-999.0,99,23.81,,,-99.99,,2013-04-22 04:33:00,
2013-04-21 23:43:00,50.0,50.0,28.88,NE,39,0.0,-999.0,99,23.81,,,-99.99,,2013-04-22 04:43:00,
2013-04-21 23:53:00,50.0,50.0,28.88,NNE,20,3.0,-999.0,99,23.81,,,-99.99,,2013-04-22 04:53:00,